Terminal Aerodrome Forecast
Issued by NWS

Home | Current Version | Previous Version | Text Only | Print | Product List | Glossary On
Versions: 1 2 3 4 5 6 7 8 9 10 11 12 13 14 15 16 17 18 19 20 21 22 23 24 25 26
000
FTUS41 KCTP 241930 AAA
TAFAOO
TAF AMD
KAOO 241930Z 2420/2518 18010G16KT P6SM BKN090
     FM250800 18008KT P6SM BKN025
     FM251200 17009G16KT P6SM VCSH OVC025
     FM251400 19010G20KT 4SM -SHRA BR OVC015
     FM251500 23015G30KT 2SM -TSRA OVC009CB
     FM251700 25015G30KT 6SM -SHRA BKN010=

USA.gov is the U.S. government's official web portal to all federal, state and local government web resources and services.